sensor_id;sensor_type;location;lat;lon;timestamp;pressure;altitude;pressure_sealevel;temperature;humidity
27144;BME280;14672;50.250;8.312;2023-04-09T00:00:38;99654.16;;;11.83;56.93
27144;BME280;14672;50.250;8.312;2023-04-09T00:03:04;99644.81;;;11.83;57.64
27144;BME280;14672;50.250;8.312;2023-04-09T00:05:30;99647.41;;;11.77;57.59
27144;BME280;14672;50.250;8.312;2023-04-09T00:07:55;99649.72;;;11.82;57.70
27144;BME280;14672;50.250;8.312;2023-04-09T00:10:22;99645.81;;;11.76;58.00
27144;BME280;14672;50.250;8.312;2023-04-09T00:12:47;99651.78;;;11.82;58.29
27144;BME280;14672;50.250;8.312;2023-04-09T00:15:13;99648.56;;;11.80;58.58
27144;BME280;14672;50.250;8.312;2023-04-09T00:17:39;99646.25;;;11.74;58.55
27144;BME280;14672;50.250;8.312;2023-04-09T00:20:06;99645.09;;;11.72;58.58
27144;BME280;14672;50.250;8.312;2023-04-09T00:22:32;99649.72;;;11.66;58.92
27144;BME280;14672;50.250;8.312;2023-04-09T00:24:58;99641.47;;;11.71;58.68
27144;BME280;14672;50.250;8.312;2023-04-09T00:27:24;99638.34;;;11.66;59.13
27144;BME280;14672;50.250;8.312;2023-04-09T00:29:53;99644.91;;;11.63;58.88
27144;BME280;14672;50.250;8.312;2023-04-09T00:32:19;99636.38;;;11.63;58.97
27144;BME280;14672;50.250;8.312;2023-04-09T00:34:45;99635.66;;;11.59;59.23
27144;BME280;14672;50.250;8.312;2023-04-09T00:37:11;99629.91;;;11.62;59.07
27144;BME280;14672;50.250;8.312;2023-04-09T00:39:37;99625.53;;;11.58;59.54
27144;BME280;14672;50.250;8.312;2023-04-09T00:42:02;99623.13;;;11.56;59.60
27144;BME280;14672;50.250;8.312;2023-04-09T00:44:28;99631.34;;;11.54;59.45
27144;BME280;14672;50.250;8.312;2023-04-09T00:46:54;99624.38;;;11.55;59.16
27144;BME280;14672;50.250;8.312;2023-04-09T00:49:21;99632.31;;;11.48;59.41
27144;BME280;14672;50.250;8.312;2023-04-09T00:51:49;99628.22;;;11.49;58.71
27144;BME280;14672;50.250;8.312;2023-04-09T00:54:15;99623.44;;;11.46;58.96
27144;BME280;14672;50.250;8.312;2023-04-09T00:56:41;99630.34;;;11.45;59.20
27144;BME280;14672;50.250;8.312;2023-04-09T00:59:07;99629.22;;;11.42;59.44
27144;BME280;14672;50.250;8.312;2023-04-09T01:01:33;99630.00;;;11.43;59.68
27144;BME280;14672;50.250;8.312;2023-04-09T01:03:59;99628.03;;;11.40;59.82
27144;BME280;14672;50.250;8.312;2023-04-09T01:09:13;99632.50;;;11.24;61.78
27144;BME280;14672;50.250;8.312;2023-04-09T01:12:23;99623.88;;;11.28;61.17
27144;BME280;14672;50.250;8.312;2023-04-09T01:15:07;99628.69;;;11.15;61.78
27144;BME280;14672;50.250;8.312;2023-04-09T01:17:43;99624.06;;;11.21;61.21
27144;BME280;14672;50.250;8.312;2023-04-09T01:20:34;99626.47;;;11.22;61.37
27144;BME280;14672;50.250;8.312;2023-04-09T01:23:52;99627.00;;;11.17;61.18
27144;BME280;14672;50.250;8.312;2023-04-09T01:26:52;99618.56;;;11.14;61.44
27144;BME280;14672;50.250;8.312;2023-04-09T01:29:20;99623.44;;;11.13;61.53
27144;BME280;14672;50.250;8.312;2023-04-09T01:31:48;99627.72;;;11.05;61.37
27144;BME280;14672;50.250;8.312;2023-04-09T01:34:15;99623.69;;;11.03;61.50
27144;BME280;14672;50.250;8.312;2023-04-09T01:36:50;99628.41;;;10.93;61.76
27144;BME280;14672;50.250;8.312;2023-04-09T01:39:16;99627.91;;;10.98;61.09
27144;BME280;14672;50.250;8.312;2023-04-09T01:41:43;99630.03;;;10.94;61.95
27144;BME280;14672;50.250;8.312;2023-04-09T01:44:10;99630.88;;;10.91;61.32
27144;BME280;14672;50.250;8.312;2023-04-09T01:46:38;99622.81;;;10.90;61.42
27144;BME280;14672;50.250;8.312;2023-04-09T01:49:05;99625.84;;;10.82;61.74
27144;BME280;14672;50.250;8.312;2023-04-09T01:51:32;99631.75;;;10.72;61.74
27144;BME280;14672;50.250;8.312;2023-04-09T01:53:59;99630.00;;;10.78;61.83
27144;BME280;14672;50.250;8.312;2023-04-09T01:56:25;99626.78;;;10.76;61.68
27144;BME280;14672;50.250;8.312;2023-04-09T01:58:51;99633.88;;;10.68;61.47
27144;BME280;14672;50.250;8.312;2023-04-09T02:01:32;99631.13;;;10.64;61.94
27144;BME280;14672;50.250;8.312;2023-04-09T02:04:03;99634.44;;;10.63;61.83
27144;BME280;14672;50.250;8.312;2023-04-09T02:09:02;99637.31;;;10.59;62.10
27144;BME280;14672;50.250;8.312;2023-04-09T02:11:32;99633.03;;;10.51;62.21
27144;BME280;14672;50.250;8.312;2023-04-09T02:14:00;99632.25;;;10.51;62.19
27144;BME280;14672;50.250;8.312;2023-04-09T02:16:27;99631.16;;;10.45;62.65
27144;BME280;14672;50.250;8.312;2023-04-09T02:18:54;99638.00;;;10.47;62.16
27144;BME280;14672;50.250;8.312;2023-04-09T02:21:22;99636.69;;;10.52;61.81
27144;BME280;14672;50.250;8.312;2023-04-09T02:23:49;99640.56;;;10.42;62.09
27144;BME280;14672;50.250;8.312;2023-04-09T02:26:15;99643.25;;;10.49;61.81
27144;BME280;14672;50.250;8.312;2023-04-09T02:28:41;99639.75;;;10.41;61.83
27144;BME280;14672;50.250;8.312;2023-04-09T02:31:06;99640.84;;;10.47;61.86
27144;BME280;14672;50.250;8.312;2023-04-09T02:33:32;99636.41;;;10.46;62.23
27144;BME280;14672;50.250;8.312;2023-04-09T02:35:58;99634.91;;;10.42;62.41
27144;BME280;14672;50.250;8.312;2023-04-09T02:38:24;99635.06;;;10.34;62.55
27144;BME280;14672;50.250;8.312;2023-04-09T02:40:49;99634.59;;;10.36;62.54
27144;BME280;14672;50.250;8.312;2023-04-09T02:43:15;99635.13;;;10.31;62.30
27144;BME280;14672;50.250;8.312;2023-04-09T02:45:41;99644.97;;;10.26;63.22
27144;BME280;14672;50.250;8.312;2023-04-09T02:48:07;99633.94;;;10.28;62.82
27144;BME280;14672;50.250;8.312;2023-04-09T02:50:32;99639.38;;;10.23;62.54
27144;BME280;14672;50.250;8.312;2023-04-09T02:52:58;99639.38;;;10.23;62.68
27144;BME280;14672;50.250;8.312;2023-04-09T02:55:24;99636.56;;;10.19;62.87
27144;BME280;14672;50.250;8.312;2023-04-09T02:57:50;99639.78;;;10.21;62.67
27144;BME280;14672;50.250;8.312;2023-04-09T03:00:15;99636.22;;;10.17;62.70
27144;BME280;14672;50.250;8.312;2023-04-09T03:02:41;99638.19;;;10.20;62.85
27144;BME280;14672;50.250;8.312;2023-04-09T03:05:07;99631.78;;;10.16;62.97
27144;BME280;14672;50.250;8.312;2023-04-09T03:07:33;99631.03;;;10.12;62.88
27144;BME280;14672;50.250;8.312;2023-04-09T03:09:59;99628.69;;;10.07;62.82
27144;BME280;14672;50.250;8.312;2023-04-09T03:12:24;99632.78;;;10.06;62.67
27144;BME280;14672;50.250;8.312;2023-04-09T03:14:50;99629.78;;;9.94;62.96
27144;BME280;14672;50.250;8.312;2023-04-09T03:17:16;99632.78;;;9.86;62.79
27144;BME280;14672;50.250;8.312;2023-04-09T03:19:42;99620.53;;;9.89;62.73
27144;BME280;14672;50.250;8.312;2023-04-09T03:22:07;99628.63;;;9.91;62.28
27144;BME280;14672;50.250;8.312;2023-04-09T03:24:33;99619.00;;;9.85;61.29
27144;BME280;14672;50.250;8.312;2023-04-09T03:26:59;99617.47;;;9.80;61.65
27144;BME280;14672;50.250;8.312;2023-04-09T03:29:25;99617.63;;;9.73;61.12
27144;BME280;14672;50.250;8.312;2023-04-09T03:31:51;99612.91;;;9.67;60.58
27144;BME280;14672;50.250;8.312;2023-04-09T03:34:16;99623.59;;;9.59;61.31
27144;BME280;14672;50.250;8.312;2023-04-09T03:36:42;99622.88;;;9.52;60.72
27144;BME280;14672;50.250;8.312;2023-04-09T03:39:08;99614.66;;;9.37;61.16
27144;BME280;14672;50.250;8.312;2023-04-09T03:41:33;99607.38;;;9.36;61.16
27144;BME280;14672;50.250;8.312;2023-04-09T03:43:59;99612.81;;;9.27;60.52
27144;BME280;14672;50.250;8.312;2023-04-09T03:46:25;99616.38;;;9.08;60.40
27144;BME280;14672;50.250;8.312;2023-04-09T03:48:51;99611.16;;;9.07;59.88
27144;BME280;14672;50.250;8.312;2023-04-09T03:51:17;99615.41;;;8.95;60.34
27144;BME280;14672;50.250;8.312;2023-04-09T03:53:43;99609.66;;;8.75;60.05
27144;BME280;14672;50.250;8.312;2023-04-09T03:56:09;99609.38;;;8.66;59.45
27144;BME280;14672;50.250;8.312;2023-04-09T03:58:36;99619.22;;;8.58;59.87
27144;BME280;14672;50.250;8.312;2023-04-09T04:01:02;99618.81;;;8.56;59.73
27144;BME280;14672;50.250;8.312;2023-04-09T04:03:28;99616.50;;;8.51;60.51
27144;BME280;14672;50.250;8.312;2023-04-09T04:06:00;99615.75;;;8.47;61.33
27144;BME280;14672;50.250;8.312;2023-04-09T04:08:26;99613.44;;;8.38;61.40
27144;BME280;14672;50.250;8.312;2023-04-09T04:10:52;99614.28;;;8.35;60.80
27144;BME280;14672;50.250;8.312;2023-04-09T04:13:18;99612.69;;;8.34;60.62
27144;BME280;14672;50.250;8.312;2023-04-09T04:15:44;99611.94;;;8.27;61.05
27144;BME280;14672;50.250;8.312;2023-04-09T04:18:09;99613.69;;;8.17;61.01
27144;BME280;14672;50.250;8.312;2023-04-09T04:20:36;99620.97;;;8.18;60.43
27144;BME280;14672;50.250;8.312;2023-04-09T04:23:03;99620.41;;;7.96;60.20
27144;BME280;14672;50.250;8.312;2023-04-09T04:25:30;99622.88;;;7.94;60.15
27144;BME280;14672;50.250;8.312;2023-04-09T04:27:56;99619.69;;;7.89;60.61
27144;BME280;14672;50.250;8.312;2023-04-09T04:30:22;99620.50;;;7.89;60.13
27144;BME280;14672;50.250;8.312;2023-04-09T04:32:48;99623.03;;;7.84;60.03
27144;BME280;14672;50.250;8.312;2023-04-09T04:35:14;99630.81;;;7.73;60.56
27144;BME280;14672;50.250;8.312;2023-04-09T04:37:41;99637.75;;;7.68;60.68
27144;BME280;14672;50.250;8.312;2023-04-09T04:40:07;99631.28;;;7.68;60.29
27144;BME280;14672;50.250;8.312;2023-04-09T04:42:34;99641.03;;;7.63;60.13
27144;BME280;14672;50.250;8.312;2023-04-09T04:45:00;99638.78;;;7.47;60.46
27144;BME280;14672;50.250;8.312;2023-04-09T04:47:25;99636.34;;;7.46;60.64
27144;BME280;14672;50.250;8.312;2023-04-09T04:49:52;99636.06;;;7.33;60.42
27144;BME280;14672;50.250;8.312;2023-04-09T04:52:17;99645.75;;;7.36;61.06
27144;BME280;14672;50.250;8.312;2023-04-09T04:54:43;99644.63;;;7.26;61.36
27144;BME280;14672;50.250;8.312;2023-04-09T04:57:09;99645.91;;;7.18;61.04
27144;BME280;14672;50.250;8.312;2023-04-09T04:59:39;99650.28;;;7.26;60.55
27144;BME280;14672;50.250;8.312;2023-04-09T05:02:08;99640.13;;;7.29;61.21
27144;BME280;14672;50.250;8.312;2023-04-09T05:04:34;99651.53;;;7.22;60.79
27144;BME280;14672;50.250;8.312;2023-04-09T05:07:00;99645.09;;;7.18;61.05
27144;BME280;14672;50.250;8.312;2023-04-09T05:09:26;99648.38;;;7.13;61.33
27144;BME280;14672;50.250;8.312;2023-04-09T05:11:51;99650.44;;;7.05;61.15
27144;BME280;14672;50.250;8.312;2023-04-09T05:14:17;99646.41;;;7.06;61.27
27144;BME280;14672;50.250;8.312;2023-04-09T05:16:46;99644.84;;;7.01;60.78
27144;BME280;14672;50.250;8.312;2023-04-09T05:19:11;99652.19;;;6.92;61.28
27144;BME280;14672;50.250;8.312;2023-04-09T05:21:37;99652.97;;;6.96;61.30
27144;BME280;14672;50.250;8.312;2023-04-09T05:24:03;99650.94;;;6.93;60.98
27144;BME280;14672;50.250;8.312;2023-04-09T05:26:29;99646.53;;;6.92;61.47
27144;BME280;14672;50.250;8.312;2023-04-09T05:28:55;99655.03;;;6.88;61.67
27144;BME280;14672;50.250;8.312;2023-04-09T05:31:21;99648.97;;;6.90;61.97
27144;BME280;14672;50.250;8.312;2023-04-09T05:33:47;99638.47;;;6.90;61.91
27144;BME280;14672;50.250;8.312;2023-04-09T05:36:16;99646.97;;;6.87;62.80
27144;BME280;14672;50.250;8.312;2023-04-09T05:38:45;99645.25;;;7.00;62.58
27144;BME280;14672;50.250;8.312;2023-04-09T05:41:11;99644.84;;;7.01;62.44
27144;BME280;14672;50.250;8.312;2023-04-09T05:43:37;99649.66;;;7.01;62.35
27144;BME280;14672;50.250;8.312;2023-04-09T05:46:03;99649.31;;;6.99;62.82
27144;BME280;14672;50.250;8.312;2023-04-09T05:48:29;99651.69;;;7.04;62.66
27144;BME280;14672;50.250;8.312;2023-04-09T05:50:55;99650.88;;;7.03;62.88
27144;BME280;14672;50.250;8.312;2023-04-09T05:53:21;99644.78;;;7.08;63.22
27144;BME280;14672;50.250;8.312;2023-04-09T05:55:47;99649.94;;;7.17;62.87
27144;BME280;14672;50.250;8.312;2023-04-09T05:58:16;99646.78;;;7.12;62.99
27144;BME280;14672;50.250;8.312;2023-04-09T06:00:43;99649.06;;;7.27;63.12
27144;BME280;14672;50.250;8.312;2023-04-09T06:03:09;99640.50;;;7.34;63.54
27144;BME280;14672;50.250;8.312;2023-04-09T06:05:35;99647.78;;;7.35;63.83
27144;BME280;14672;50.250;8.312;2023-04-09T06:08:01;99648.13;;;7.37;63.89
27144;BME280;14672;50.250;8.312;2023-04-09T06:10:27;99647.56;;;7.53;64.39
27144;BME280;14672;50.250;8.312;2023-04-09T06:12:53;99644.75;;;7.53;64.11
27144;BME280;14672;50.250;8.312;2023-04-09T06:15:19;99648.66;;;7.66;64.41
27144;BME280;14672;50.250;8.312;2023-04-09T06:17:45;99658.69;;;7.74;65.01
27144;BME280;14672;50.250;8.312;2023-04-09T06:20:11;99651.38;;;7.77;64.89
27144;BME280;14672;50.250;8.312;2023-04-09T06:22:37;99649.59;;;7.90;64.70
27144;BME280;14672;50.250;8.312;2023-04-09T06:25:03;99653.59;;;7.96;65.02
27144;BME280;14672;50.250;8.312;2023-04-09T06:27:29;99647.78;;;8.07;64.96
27144;BME280;14672;50.250;8.312;2023-04-09T06:29:55;99650.97;;;8.09;64.69
27144;BME280;14672;50.250;8.312;2023-04-09T06:32:21;99651.69;;;8.16;65.22
27144;BME280;14672;50.250;8.312;2023-04-09T06:34:46;99653.94;;;8.35;65.34
27144;BME280;14672;50.250;8.312;2023-04-09T06:37:13;99652.56;;;8.47;65.26
27144;BME280;14672;50.250;8.312;2023-04-09T06:39:39;99656.38;;;8.64;65.28
27144;BME280;14672;50.250;8.312;2023-04-09T06:42:06;99654.59;;;8.73;65.66
27144;BME280;14672;50.250;8.312;2023-04-09T06:44:33;99653.63;;;8.83;65.85
27144;BME280;14672;50.250;8.312;2023-04-09T06:46:59;99651.00;;;8.96;65.67
27144;BME280;14672;50.250;8.312;2023-04-09T06:49:24;99655.31;;;9.04;65.23
27144;BME280;14672;50.250;8.312;2023-04-09T06:51:50;99658.34;;;9.17;65.13
27144;BME280;14672;50.250;8.312;2023-04-09T06:54:19;99660.63;;;9.25;65.59
27144;BME280;14672;50.250;8.312;2023-04-09T06:56:45;99656.84;;;9.35;65.04
27144;BME280;14672;50.250;8.312;2023-04-09T06:59:11;99665.56;;;9.44;65.30
27144;BME280;14672;50.250;8.312;2023-04-09T07:01:37;99659.22;;;9.60;64.65
27144;BME280;14672;50.250;8.312;2023-04-09T07:04:03;99655.81;;;9.69;64.17
27144;BME280;14672;50.250;8.312;2023-04-09T07:06:31;99653.56;;;9.80;63.74
27144;BME280;14672;50.250;8.312;2023-04-09T07:08:57;99654.53;;;9.93;64.03
27144;BME280;14672;50.250;8.312;2023-04-09T07:11:22;99647.81;;;10.03;63.57
27144;BME280;14672;50.250;8.312;2023-04-09T07:13:49;99651.22;;;10.18;63.63
27144;BME280;14672;50.250;8.312;2023-04-09T07:16:15;99646.91;;;10.29;63.05
27144;BME280;14672;50.250;8.312;2023-04-09T07:18:41;99650.31;;;10.41;62.89
27144;BME280;14672;50.250;8.312;2023-04-09T07:21:06;99653.72;;;10.52;62.73
27144;BME280;14672;50.250;8.312;2023-04-09T07:23:35;99654.75;;;10.61;63.07
27144;BME280;14672;50.250;8.312;2023-04-09T07:26:03;99643.03;;;10.75;62.13
27144;BME280;14672;50.250;8.312;2023-04-09T07:28:30;99647.22;;;10.87;62.02
27144;BME280;14672;50.250;8.312;2023-04-09T07:30:55;99645.38;;;10.97;61.70
27144;BME280;14672;50.250;8.312;2023-04-09T07:33:21;99652.50;;;11.05;61.44
27144;BME280;14672;50.250;8.312;2023-04-09T07:35:47;99656.34;;;11.14;61.58
27144;BME280;14672;50.250;8.312;2023-04-09T07:38:13;99647.16;;;11.23;60.70
27144;BME280;14672;50.250;8.312;2023-04-09T07:40:39;99650.56;;;11.34;60.09
27144;BME280;14672;50.250;8.312;2023-04-09T07:43:05;99649.56;;;11.41;59.95
27144;BME280;14672;50.250;8.312;2023-04-09T07:45:31;99647.25;;;11.52;59.39
27144;BME280;14672;50.250;8.312;2023-04-09T07:47:57;99652.03;;;11.55;59.97
27144;BME280;14672;50.250;8.312;2023-04-09T07:50:23;99651.78;;;11.65;59.27
27144;BME280;14672;50.250;8.312;2023-04-09T07:52:48;99651.88;;;11.78;58.95
27144;BME280;14672;50.250;8.312;2023-04-09T07:55:15;99654.63;;;11.82;58.79
27144;BME280;14672;50.250;8.312;2023-04-09T07:57:40;99645.06;;;11.88;58.39
27144;BME280;14672;50.250;8.312;2023-04-09T08:00:08;99653.34;;;11.83;58.48
27144;BME280;14672;50.250;8.312;2023-04-09T08:02:34;99650.75;;;11.88;57.50
27144;BME280;14672;50.250;8.312;2023-04-09T08:05:00;99639.53;;;11.97;57.75
27144;BME280;14672;50.250;8.312;2023-04-09T08:07:27;99653.56;;;12.04;58.08
27144;BME280;14672;50.250;8.312;2023-04-09T08:09:52;99648.66;;;12.05;57.31
27144;BME280;14672;50.250;8.312;2023-04-09T08:12:18;99657.16;;;12.21;57.15
27144;BME280;14672;50.250;8.312;2023-04-09T08:14:44;99655.81;;;12.26;57.73
27144;BME280;14672;50.250;8.312;2023-04-09T08:17:19;99656.84;;;12.32;57.43
27144;BME280;14672;50.250;8.312;2023-04-09T08:19:45;99651.84;;;12.36;57.17
27144;BME280;14672;50.250;8.312;2023-04-09T08:22:10;99653.28;;;12.28;56.48
27144;BME280;14672;50.250;8.312;2023-04-09T08:24:36;99652.31;;;12.47;56.50
27144;BME280;14672;50.250;8.312;2023-04-09T08:27:04;99652.19;;;12.50;56.22
27144;BME280;14672;50.250;8.312;2023-04-09T08:29:30;99649.72;;;12.52;56.43
27144;BME280;14672;50.250;8.312;2023-04-09T08:31:57;99649.97;;;12.58;56.62
27144;BME280;14672;50.250;8.312;2023-04-09T08:34:23;99661.13;;;12.65;56.38
27144;BME280;14672;50.250;8.312;2023-04-09T08:36:49;99657.56;;;12.48;56.26
27144;BME280;14672;50.250;8.312;2023-04-09T08:39:16;99664.88;;;12.62;55.62
27144;BME280;14672;50.250;8.312;2023-04-09T08:41:45;99658.75;;;12.76;55.92
27144;BME280;14672;50.250;8.312;2023-04-09T08:44:12;99667.16;;;12.67;56.11
27144;BME280;14672;50.250;8.312;2023-04-09T08:46:38;99668.00;;;12.80;55.25
27144;BME280;14672;50.250;8.312;2023-04-09T08:49:04;99662.97;;;12.84;55.57
27144;BME280;14672;50.250;8.312;2023-04-09T08:51:30;99665.84;;;12.84;56.62
27144;BME280;14672;50.250;8.312;2023-04-09T08:54:00;99664.91;;;12.87;55.85
27144;BME280;14672;50.250;8.312;2023-04-09T08:56:27;99669.13;;;12.95;56.04
27144;BME280;14672;50.250;8.312;2023-04-09T08:58:55;99660.72;;;13.04;56.28
27144;BME280;14672;50.250;8.312;2023-04-09T09:04:00;99668.13;;;13.14;55.90
27144;BME280;14672;50.250;8.312;2023-04-09T09:06:31;99665.16;;;13.31;55.86
27144;BME280;14672;50.250;8.312;2023-04-09T09:09:16;99667.56;;;13.20;55.95
27144;BME280;14672;50.250;8.312;2023-04-09T09:11:47;99667.06;;;13.46;55.86
27144;BME280;14672;50.250;8.312;2023-04-09T09:14:17;99665.13;;;13.56;55.06
27144;BME280;14672;50.250;8.312;2023-04-09T09:17:04;99673.44;;;13.63;54.49
27144;BME280;14672;50.250;8.312;2023-04-09T09:19:32;99678.84;;;13.48;53.42
27144;BME280;14672;50.250;8.312;2023-04-09T09:22:05;99673.06;;;13.74;54.29
27144;BME280;14672;50.250;8.312;2023-04-09T09:24:48;99676.84;;;13.71;53.61
27144;BME280;14672;50.250;8.312;2023-04-09T09:27:34;99668.25;;;13.83;53.89
27144;BME280;14672;50.250;8.312;2023-04-09T09:30:06;99668.13;;;13.87;53.82
27144;BME280;14672;50.250;8.312;2023-04-09T09:32:33;99675.31;;;13.91;53.89
27144;BME280;14672;50.250;8.312;2023-04-09T09:35:02;99669.56;;;14.04;53.14
27144;BME280;14672;50.250;8.312;2023-04-09T09:37:29;99678.41;;;14.19;53.31
27144;BME280;14672;50.250;8.312;2023-04-09T09:39:59;99661.66;;;14.30;53.16
27144;BME280;14672;50.250;8.312;2023-04-09T09:42:25;99672.53;;;14.35;52.75
27144;BME280;14672;50.250;8.312;2023-04-09T09:44:55;99672.19;;;14.33;51.78
27144;BME280;14672;50.250;8.312;2023-04-09T09:47:22;99667.81;;;14.41;50.96
27144;BME280;14672;50.250;8.312;2023-04-09T09:49:49;99667.41;;;14.51;51.07
27144;BME280;14672;50.250;8.312;2023-04-09T09:52:19;99664.41;;;14.55;50.53
27144;BME280;14672;50.250;8.312;2023-04-09T09:54:51;99661.53;;;14.55;49.99
27144;BME280;14672;50.250;8.312;2023-04-09T09:57:20;99654.06;;;14.79;50.11
27144;BME280;14672;50.250;8.312;2023-04-09T10:00:00;99654.94;;;14.67;49.05
27144;BME280;14672;50.250;8.312;2023-04-09T10:02:27;99654.00;;;14.70;49.02
27144;BME280;14672;50.250;8.312;2023-04-09T10:05:00;99650.50;;;14.66;49.05
27144;BME280;14672;50.250;8.312;2023-04-09T10:07:27;99645.38;;;14.61;48.41
27144;BME280;14672;50.250;8.312;2023-04-09T10:09:55;99640.38;;;14.74;47.80
27144;BME280;14672;50.250;8.312;2023-04-09T10:12:24;99642.03;;;14.84;49.16
27144;BME280;14672;50.250;8.312;2023-04-09T10:14:51;99638.75;;;14.73;48.36
27144;BME280;14672;50.250;8.312;2023-04-09T10:17:18;99636.25;;;14.75;48.03
27144;BME280;14672;50.250;8.312;2023-04-09T10:22:32;99638.34;;;14.84;48.20
27144;BME280;14672;50.250;8.312;2023-04-09T10:25:00;99636.91;;;14.79;47.97
27144;BME280;14672;50.250;8.312;2023-04-09T10:27:27;99638.69;;;14.86;47.61
27144;BME280;14672;50.250;8.312;2023-04-09T10:29:53;99633.81;;;14.95;47.45
27144;BME280;14672;50.250;8.312;2023-04-09T10:32:23;99624.88;;;14.93;47.26
27144;BME280;14672;50.250;8.312;2023-04-09T10:34:57;99624.63;;;15.00;46.21
27144;BME280;14672;50.250;8.312;2023-04-09T10:37:25;99620.69;;;14.76;45.20
27144;BME280;14672;50.250;8.312;2023-04-09T10:39:52;99614.69;;;14.83;45.41
27144;BME280;14672;50.250;8.312;2023-04-09T10:42:28;99619.31;;;14.90;46.32
27144;BME280;14672;50.250;8.312;2023-04-09T10:45:27;99622.31;;;14.86;47.03
27144;BME280;14672;50.250;8.312;2023-04-09T10:48:02;99622.53;;;15.01;46.34
27144;BME280;14672;50.250;8.312;2023-04-09T10:50:31;99619.25;;;15.12;46.63
27144;BME280;14672;50.250;8.312;2023-04-09T10:52:57;99620.19;;;15.09;44.76
27144;BME280;14672;50.250;8.312;2023-04-09T10:55:40;99622.56;;;15.10;42.88
27144;BME280;14672;50.250;8.312;2023-04-09T10:58:10;99628.50;;;15.25;42.95
27144;BME280;14672;50.250;8.312;2023-04-09T11:00:42;99616.38;;;15.21;43.37
27144;BME280;14672;50.250;8.312;2023-04-09T11:03:26;99618.69;;;15.44;43.24
27144;BME280;14672;50.250;8.312;2023-04-09T11:06:03;99627.03;;;15.78;44.15
27144;BME280;14672;50.250;8.312;2023-04-09T11:08:34;99624.03;;;15.82;44.58
27144;BME280;14672;50.250;8.312;2023-04-09T11:11:01;99630.09;;;15.84;44.19
27144;BME280;14672;50.250;8.312;2023-04-09T11:13:28;99627.22;;;15.84;44.16
27144;BME280;14672;50.250;8.312;2023-04-09T11:15:55;99621.00;;;15.94;43.50
27144;BME280;14672;50.250;8.312;2023-04-09T11:18:24;99619.41;;;16.03;43.76
27144;BME280;14672;50.250;8.312;2023-04-09T11:21:00;99619.25;;;16.06;43.55
27144;BME280;14672;50.250;8.312;2023-04-09T11:23:27;99614.94;;;16.11;43.26
27144;BME280;14672;50.250;8.312;2023-04-09T11:25:53;99601.22;;;16.33;42.76
27144;BME280;14672;50.250;8.312;2023-04-09T11:28:20;99603.72;;;16.49;42.51
27144;BME280;14672;50.250;8.312;2023-04-09T11:30:46;99602.16;;;16.48;42.41
27144;BME280;14672;50.250;8.312;2023-04-09T11:33:12;99610.78;;;16.48;41.27
27144;BME280;14672;50.250;8.312;2023-04-09T11:35:38;99601.22;;;16.33;40.98
27144;BME280;14672;50.250;8.312;2023-04-09T11:38:09;99600.56;;;16.47;40.96
27144;BME280;14672;50.250;8.312;2023-04-09T11:40:39;99614.84;;;16.74;41.14
27144;BME280;14672;50.250;8.312;2023-04-09T11:43:10;99605.22;;;16.96;38.39
27144;BME280;14672;50.250;8.312;2023-04-09T11:45:36;99606.34;;;16.89;37.12
27144;BME280;14672;50.250;8.312;2023-04-09T11:48:03;99608.38;;;16.98;37.59
27144;BME280;14672;50.250;8.312;2023-04-09T11:50:30;99600.81;;;17.18;36.93
27144;BME280;14672;50.250;8.312;2023-04-09T11:52:57;99606.75;;;17.06;38.17
27144;BME280;14672;50.250;8.312;2023-04-09T11:55:28;99600.72;;;17.04;37.44
27144;BME280;14672;50.250;8.312;2023-04-09T11:57:59;99609.03;;;16.92;37.71
27144;BME280;14672;50.250;8.312;2023-04-09T12:00:26;99606.91;;;16.60;37.53
27144;BME280;14672;50.250;8.312;2023-04-09T12:03:03;99604.03;;;16.69;38.36
27144;BME280;14672;50.250;8.312;2023-04-09T12:05:32;99602.44;;;16.68;39.58
27144;BME280;14672;50.250;8.312;2023-04-09T12:10:32;99583.34;;;16.47;40.85
27144;BME280;14672;50.250;8.312;2023-04-09T12:13:09;99596.06;;;16.64;40.67
27144;BME280;14672;50.250;8.312;2023-04-09T12:15:38;99590.63;;;16.75;39.59
27144;BME280;14672;50.250;8.312;2023-04-09T12:18:12;99591.69;;;16.87;40.41
27144;BME280;14672;50.250;8.312;2023-04-09T12:20:40;99592.81;;;16.80;40.91
27144;BME280;14672;50.250;8.312;2023-04-09T12:23:07;99602.22;;;16.90;40.27
27144;BME280;14672;50.250;8.312;2023-04-09T12:25:39;99598.88;;;16.82;39.10
27144;BME280;14672;50.250;8.312;2023-04-09T12:28:07;99602.47;;;16.59;39.53
27144;BME280;14672;50.250;8.312;2023-04-09T12:30:33;99588.75;;;16.63;40.34
27144;BME280;14672;50.250;8.312;2023-04-09T12:32:59;99587.97;;;16.44;40.18
27144;BME280;14672;50.250;8.312;2023-04-09T12:35:25;99590.09;;;16.26;40.26
27144;BME280;14672;50.250;8.312;2023-04-09T12:37:51;99589.44;;;16.40;40.60
27144;BME280;14672;50.250;8.312;2023-04-09T12:40:18;99578.78;;;16.22;41.80
27144;BME280;14672;50.250;8.312;2023-04-09T12:42:45;99575.06;;;16.49;41.83
27144;BME280;14672;50.250;8.312;2023-04-09T12:45:15;99579.84;;;16.43;41.68
27144;BME280;14672;50.250;8.312;2023-04-09T12:47:42;99581.09;;;16.60;42.03
27144;BME280;14672;50.250;8.312;2023-04-09T12:50:09;99576.34;;;16.48;41.88
27144;BME280;14672;50.250;8.312;2023-04-09T12:52:36;99578.22;;;16.60;41.56
27144;BME280;14672;50.250;8.312;2023-04-09T12:55:03;99573.28;;;16.61;41.31
27144;BME280;14672;50.250;8.312;2023-04-09T12:57:29;99574.34;;;16.72;41.58
27144;BME280;14672;50.250;8.312;2023-04-09T12:59:55;99567.53;;;16.70;41.13
27144;BME280;14672;50.250;8.312;2023-04-09T13:02:22;99572.00;;;16.53;41.99
27144;BME280;14672;50.250;8.312;2023-04-09T13:04:48;99559.91;;;16.67;41.56
27144;BME280;14672;50.250;8.312;2023-04-09T13:07:15;99569.47;;;16.45;42.29
27144;BME280;14672;50.250;8.312;2023-04-09T13:09:43;99561.84;;;16.42;41.65
27144;BME280;14672;50.250;8.312;2023-04-09T13:12:09;99566.09;;;16.56;41.74
27144;BME280;14672;50.250;8.312;2023-04-09T13:14:38;99560.88;;;16.45;41.41
27144;BME280;14672;50.250;8.312;2023-04-09T13:17:05;99564.84;;;16.57;40.59
27144;BME280;14672;50.250;8.312;2023-04-09T13:19:31;99561.06;;;16.42;40.71